sensor_id;sensor_type;location;lat;lon;timestamp;temperature;humidity
40676;DHT22;26359;48.750;9.314;2023-07-08T00:00:22;22.20;83.80
40676;DHT22;26359;48.750;9.314;2023-07-08T00:02:49;22.10;84.40
40676;DHT22;26359;48.750;9.314;2023-07-08T00:05:17;22.10;80.80
40676;DHT22;26359;48.750;9.314;2023-07-08T00:07:43;22.10;83.70
40676;DHT22;26359;48.750;9.314;2023-07-08T00:10:21;22.10;81.60
40676;DHT22;26359;48.750;9.314;2023-07-08T00:12:50;22.10;82.70
40676;DHT22;26359;48.750;9.314;2023-07-08T00:15:16;22.10;84.10
40676;DHT22;26359;48.750;9.314;2023-07-08T00:17:43;22.10;83.90
40676;DHT22;26359;48.750;9.314;2023-07-08T00:20:14;22.00;83.90
40676;DHT22;26359;48.750;9.314;2023-07-08T00:22:41;22.00;82.30
40676;DHT22;26359;48.750;9.314;2023-07-08T00:25:07;22.00;83.10
40676;DHT22;26359;48.750;9.314;2023-07-08T00:27:33;22.00;85.00
40676;DHT22;26359;48.750;9.314;2023-07-08T00:29:59;21.90;83.80
40676;DHT22;26359;48.750;9.314;2023-07-08T00:32:25;21.90;83.20
40676;DHT22;26359;48.750;9.314;2023-07-08T00:34:51;21.90;85.60
40676;DHT22;26359;48.750;9.314;2023-07-08T00:37:16;21.90;84.50
40676;DHT22;26359;48.750;9.314;2023-07-08T00:39:42;21.80;84.00
40676;DHT22;26359;48.750;9.314;2023-07-08T00:42:16;21.80;83.70
40676;DHT22;26359;48.750;9.314;2023-07-08T00:44:43;21.80;83.90
40676;DHT22;26359;48.750;9.314;2023-07-08T00:47:11;21.80;84.30
40676;DHT22;26359;48.750;9.314;2023-07-08T00:49:42;21.70;84.30
40676;DHT22;26359;48.750;9.314;2023-07-08T00:52:25;21.70;84.80
40676;DHT22;26359;48.750;9.314;2023-07-08T00:54:53;21.70;84.40
40676;DHT22;26359;48.750;9.314;2023-07-08T00:57:20;21.70;84.00
40676;DHT22;26359;48.750;9.314;2023-07-08T01:00:02;21.60;85.60
40676;DHT22;26359;48.750;9.314;2023-07-08T01:02:29;21.60;83.90
40676;DHT22;26359;48.750;9.314;2023-07-08T01:05:14;21.60;85.60
40676;DHT22;26359;48.750;9.314;2023-07-08T01:07:45;21.60;85.00
40676;DHT22;26359;48.750;9.314;2023-07-08T01:10:28;21.50;85.70
40676;DHT22;26359;48.750;9.314;2023-07-08T01:12:59;21.50;85.50
40676;DHT22;26359;48.750;9.314;2023-07-08T01:15:31;21.50;86.70
40676;DHT22;26359;48.750;9.314;2023-07-08T01:17:58;21.50;86.50
40676;DHT22;26359;48.750;9.314;2023-07-08T01:20:24;21.40;86.70
40676;DHT22;26359;48.750;9.314;2023-07-08T01:22:50;21.30;85.80
40676;DHT22;26359;48.750;9.314;2023-07-08T01:25:15;21.30;86.00
40676;DHT22;26359;48.750;9.314;2023-07-08T01:27:45;21.20;87.50
40676;DHT22;26359;48.750;9.314;2023-07-08T01:30:14;21.20;87.60
40676;DHT22;26359;48.750;9.314;2023-07-08T01:32:45;21.20;88.10
40676;DHT22;26359;48.750;9.314;2023-07-08T01:35:13;21.10;87.10
40676;DHT22;26359;48.750;9.314;2023-07-08T01:37:43;21.00;87.10
40676;DHT22;26359;48.750;9.314;2023-07-08T01:42:45;21.00;86.60
40676;DHT22;26359;48.750;9.314;2023-07-08T01:45:12;20.90;87.40
40676;DHT22;26359;48.750;9.314;2023-07-08T01:47:41;20.90;89.20
40676;DHT22;26359;48.750;9.314;2023-07-08T01:50:08;20.90;89.60
40676;DHT22;26359;48.750;9.314;2023-07-08T01:52:34;20.80;90.20
40676;DHT22;26359;48.750;9.314;2023-07-08T01:55:00;20.80;89.60
40676;DHT22;26359;48.750;9.314;2023-07-08T01:57:26;20.80;89.20
40676;DHT22;26359;48.750;9.314;2023-07-08T01:59:51;20.80;90.10
40676;DHT22;26359;48.750;9.314;2023-07-08T02:02:17;20.70;89.30
40676;DHT22;26359;48.750;9.314;2023-07-08T02:04:42;20.70;90.30
40676;DHT22;26359;48.750;9.314;2023-07-08T02:07:08;20.70;90.30
40676;DHT22;26359;48.750;9.314;2023-07-08T02:09:33;20.60;90.50
40676;DHT22;26359;48.750;9.314;2023-07-08T02:11:59;20.60;90.00
40676;DHT22;26359;48.750;9.314;2023-07-08T02:14:24;20.50;90.90
40676;DHT22;26359;48.750;9.314;2023-07-08T02:16:50;20.50;91.00
40676;DHT22;26359;48.750;9.314;2023-07-08T02:19:15;20.50;90.80
40676;DHT22;26359;48.750;9.314;2023-07-08T02:21:41;20.40;90.30
40676;DHT22;26359;48.750;9.314;2023-07-08T02:24:07;20.40;90.90
40676;DHT22;26359;48.750;9.314;2023-07-08T02:26:33;20.30;90.80
40676;DHT22;26359;48.750;9.314;2023-07-08T02:28:59;20.30;90.80
40676;DHT22;26359;48.750;9.314;2023-07-08T02:31:25;20.20;91.30
40676;DHT22;26359;48.750;9.314;2023-07-08T02:33:51;20.30;90.80
40676;DHT22;26359;48.750;9.314;2023-07-08T02:36:17;20.20;90.60
40676;DHT22;26359;48.750;9.314;2023-07-08T02:38:43;20.20;91.20
40676;DHT22;26359;48.750;9.314;2023-07-08T02:41:08;20.20;91.20
40676;DHT22;26359;48.750;9.314;2023-07-08T02:43:34;20.10;91.30
40676;DHT22;26359;48.750;9.314;2023-07-08T02:45:59;20.10;90.80
40676;DHT22;26359;48.750;9.314;2023-07-08T02:48:25;20.00;91.30
40676;DHT22;26359;48.750;9.314;2023-07-08T02:50:50;20.00;91.10
40676;DHT22;26359;48.750;9.314;2023-07-08T02:53:16;20.00;91.30
40676;DHT22;26359;48.750;9.314;2023-07-08T02:55:41;20.00;91.20
40676;DHT22;26359;48.750;9.314;2023-07-08T02:58:08;20.10;91.30
40676;DHT22;26359;48.750;9.314;2023-07-08T03:00:34;20.00;90.80
40676;DHT22;26359;48.750;9.314;2023-07-08T03:03:03;20.00;91.00
40676;DHT22;26359;48.750;9.314;2023-07-08T03:05:29;20.00;91.40
40676;DHT22;26359;48.750;9.314;2023-07-08T03:07:56;20.00;91.20
40676;DHT22;26359;48.750;9.314;2023-07-08T03:10:21;20.00;90.40
40676;DHT22;26359;48.750;9.314;2023-07-08T03:12:47;20.00;90.10
40676;DHT22;26359;48.750;9.314;2023-07-08T03:15:12;20.00;90.30
40676;DHT22;26359;48.750;9.314;2023-07-08T03:17:38;20.10;91.20
40676;DHT22;26359;48.750;9.314;2023-07-08T03:20:03;20.10;90.90
40676;DHT22;26359;48.750;9.314;2023-07-08T03:22:31;20.10;90.80
40676;DHT22;26359;48.750;9.314;2023-07-08T03:24:56;20.10;90.50
40676;DHT22;26359;48.750;9.314;2023-07-08T03:27:22;20.00;90.30
40676;DHT22;26359;48.750;9.314;2023-07-08T03:29:47;20.00;90.80
40676;DHT22;26359;48.750;9.314;2023-07-08T03:32:13;20.00;90.70
40676;DHT22;26359;48.750;9.314;2023-07-08T03:34:38;20.00;90.90
40676;DHT22;26359;48.750;9.314;2023-07-08T03:37:04;19.90;90.40
40676;DHT22;26359;48.750;9.314;2023-07-08T03:39:30;19.80;90.70
40676;DHT22;26359;48.750;9.314;2023-07-08T03:41:59;19.80;91.40
40676;DHT22;26359;48.750;9.314;2023-07-08T03:44:24;19.80;91.40
40676;DHT22;26359;48.750;9.314;2023-07-08T03:46:50;19.80;91.60
40676;DHT22;26359;48.750;9.314;2023-07-08T03:49:20;19.70;91.30
40676;DHT22;26359;48.750;9.314;2023-07-08T03:51:48;19.80;91.00
40676;DHT22;26359;48.750;9.314;2023-07-08T03:54:14;19.70;91.60
40676;DHT22;26359;48.750;9.314;2023-07-08T03:56:40;19.70;91.70
40676;DHT22;26359;48.750;9.314;2023-07-08T03:59:06;19.70;91.90
40676;DHT22;26359;48.750;9.314;2023-07-08T04:01:32;19.70;92.00
40676;DHT22;26359;48.750;9.314;2023-07-08T04:03:58;19.70;92.40
40676;DHT22;26359;48.750;9.314;2023-07-08T04:06:25;19.70;92.10
40676;DHT22;26359;48.750;9.314;2023-07-08T04:08:51;19.60;91.90
40676;DHT22;26359;48.750;9.314;2023-07-08T04:11:22;19.60;92.10
40676;DHT22;26359;48.750;9.314;2023-07-08T04:13:48;19.60;92.50
40676;DHT22;26359;48.750;9.314;2023-07-08T04:16:17;19.60;92.90
40676;DHT22;26359;48.750;9.314;2023-07-08T04:18:44;19.60;93.10
40676;DHT22;26359;48.750;9.314;2023-07-08T04:21:09;19.60;93.10
40676;DHT22;26359;48.750;9.314;2023-07-08T04:23:35;19.60;93.00
40676;DHT22;26359;48.750;9.314;2023-07-08T04:26:01;19.70;92.60
40676;DHT22;26359;48.750;9.314;2023-07-08T04:28:26;19.80;92.60
40676;DHT22;26359;48.750;9.314;2023-07-08T04:30:52;19.70;93.20
40676;DHT22;26359;48.750;9.314;2023-07-08T04:33:17;19.70;92.90
40676;DHT22;26359;48.750;9.314;2023-07-08T04:35:44;19.70;92.30
40676;DHT22;26359;48.750;9.314;2023-07-08T04:38:18;19.70;92.70
40676;DHT22;26359;48.750;9.314;2023-07-08T04:40:44;19.70;93.90
40676;DHT22;26359;48.750;9.314;2023-07-08T04:43:10;19.70;94.00
40676;DHT22;26359;48.750;9.314;2023-07-08T04:45:39;19.70;94.00
40676;DHT22;26359;48.750;9.314;2023-07-08T04:48:06;19.70;93.40
40676;DHT22;26359;48.750;9.314;2023-07-08T04:50:34;19.80;92.90
40676;DHT22;26359;48.750;9.314;2023-07-08T04:53:00;19.80;93.00
40676;DHT22;26359;48.750;9.314;2023-07-08T04:55:25;19.80;93.70
40676;DHT22;26359;48.750;9.314;2023-07-08T04:57:51;19.80;93.90
40676;DHT22;26359;48.750;9.314;2023-07-08T05:00:17;19.80;93.60
40676;DHT22;26359;48.750;9.314;2023-07-08T05:02:45;19.90;93.50
40676;DHT22;26359;48.750;9.314;2023-07-08T05:05:10;19.90;93.20
40676;DHT22;26359;48.750;9.314;2023-07-08T05:07:36;20.00;93.70
40676;DHT22;26359;48.750;9.314;2023-07-08T05:10:02;20.00;94.10
40676;DHT22;26359;48.750;9.314;2023-07-08T05:12:28;20.00;93.00
40676;DHT22;26359;48.750;9.314;2023-07-08T05:14:53;20.10;93.10
40676;DHT22;26359;48.750;9.314;2023-07-08T05:17:19;20.10;92.50
40676;DHT22;26359;48.750;9.314;2023-07-08T05:19:44;20.20;92.00
40676;DHT22;26359;48.750;9.314;2023-07-08T05:22:11;20.20;92.50
40676;DHT22;26359;48.750;9.314;2023-07-08T05:24:38;20.30;91.70
40676;DHT22;26359;48.750;9.314;2023-07-08T05:27:03;20.30;91.90
40676;DHT22;26359;48.750;9.314;2023-07-08T05:29:29;20.50;92.40
40676;DHT22;26359;48.750;9.314;2023-07-08T05:31:55;20.60;92.00
40676;DHT22;26359;48.750;9.314;2023-07-08T05:34:20;20.70;91.80
40676;DHT22;26359;48.750;9.314;2023-07-08T05:36:46;20.80;91.50
40676;DHT22;26359;48.750;9.314;2023-07-08T05:39:11;20.90;91.60
40676;DHT22;26359;48.750;9.314;2023-07-08T05:41:37;21.00;91.70
40676;DHT22;26359;48.750;9.314;2023-07-08T05:44:02;21.00;91.60
40676;DHT22;26359;48.750;9.314;2023-07-08T05:46:28;21.00;91.30
40676;DHT22;26359;48.750;9.314;2023-07-08T05:48:54;21.10;91.50
40676;DHT22;26359;48.750;9.314;2023-07-08T05:51:20;21.10;91.40
40676;DHT22;26359;48.750;9.314;2023-07-08T05:53:46;21.20;91.80
40676;DHT22;26359;48.750;9.314;2023-07-08T05:56:11;21.30;91.70
40676;DHT22;26359;48.750;9.314;2023-07-08T05:58:37;21.30;91.80
40676;DHT22;26359;48.750;9.314;2023-07-08T06:01:03;21.40;91.80
40676;DHT22;26359;48.750;9.314;2023-07-08T06:03:29;21.40;92.00
40676;DHT22;26359;48.750;9.314;2023-07-08T06:05:54;21.50;91.70
40676;DHT22;26359;48.750;9.314;2023-07-08T06:08:20;21.60;91.60
40676;DHT22;26359;48.750;9.314;2023-07-08T06:10:46;21.60;91.50
40676;DHT22;26359;48.750;9.314;2023-07-08T06:13:12;21.60;91.60
40676;DHT22;26359;48.750;9.314;2023-07-08T06:15:39;21.60;91.30
40676;DHT22;26359;48.750;9.314;2023-07-08T06:18:04;21.60;91.30
40676;DHT22;26359;48.750;9.314;2023-07-08T06:20:30;21.60;91.60
40676;DHT22;26359;48.750;9.314;2023-07-08T06:22:56;21.60;91.60
40676;DHT22;26359;48.750;9.314;2023-07-08T06:25:21;21.70;91.60
40676;DHT22;26359;48.750;9.314;2023-07-08T06:27:47;21.70;91.60
40676;DHT22;26359;48.750;9.314;2023-07-08T06:30:12;21.80;91.50
40676;DHT22;26359;48.750;9.314;2023-07-08T06:32:38;21.90;91.60
40676;DHT22;26359;48.750;9.314;2023-07-08T06:35:04;21.90;91.60
40676;DHT22;26359;48.750;9.314;2023-07-08T06:37:30;22.00;91.80
40676;DHT22;26359;48.750;9.314;2023-07-08T06:39:55;22.10;91.40
40676;DHT22;26359;48.750;9.314;2023-07-08T06:42:21;22.20;91.80
40676;DHT22;26359;48.750;9.314;2023-07-08T06:44:46;22.20;91.90
40676;DHT22;26359;48.750;9.314;2023-07-08T06:47:20;22.30;91.60
40676;DHT22;26359;48.750;9.314;2023-07-08T06:49:46;22.30;91.70
40676;DHT22;26359;48.750;9.314;2023-07-08T06:52:12;22.30;92.00
40676;DHT22;26359;48.750;9.314;2023-07-08T06:54:38;22.30;92.40
40676;DHT22;26359;48.750;9.314;2023-07-08T06:57:04;22.30;92.00
40676;DHT22;26359;48.750;9.314;2023-07-08T06:59:29;22.30;91.90
40676;DHT22;26359;48.750;9.314;2023-07-08T07:01:55;22.40;91.70
40676;DHT22;26359;48.750;9.314;2023-07-08T07:04:20;22.40;92.00
40676;DHT22;26359;48.750;9.314;2023-07-08T07:06:46;22.50;92.10
40676;DHT22;26359;48.750;9.314;2023-07-08T07:09:11;22.50;92.40
40676;DHT22;26359;48.750;9.314;2023-07-08T07:11:37;22.70;91.80
40676;DHT22;26359;48.750;9.314;2023-07-08T07:14:02;22.70;92.40
40676;DHT22;26359;48.750;9.314;2023-07-08T07:16:28;22.80;92.30
40676;DHT22;26359;48.750;9.314;2023-07-08T07:18:54;22.80;92.60
40676;DHT22;26359;48.750;9.314;2023-07-08T07:21:22;22.70;92.90
40676;DHT22;26359;48.750;9.314;2023-07-08T07:23:48;22.70;93.00
40676;DHT22;26359;48.750;9.314;2023-07-08T07:26:14;22.80;92.50
40676;DHT22;26359;48.750;9.314;2023-07-08T07:28:39;22.80;92.50
40676;DHT22;26359;48.750;9.314;2023-07-08T07:31:05;22.80;93.00
40676;DHT22;26359;48.750;9.314;2023-07-08T07:33:36;22.80;92.80
40676;DHT22;26359;48.750;9.314;2023-07-08T07:36:01;22.80;92.70
40676;DHT22;26359;48.750;9.314;2023-07-08T07:38:27;22.90;93.00
40676;DHT22;26359;48.750;9.314;2023-07-08T07:40:55;23.00;92.20
40676;DHT22;26359;48.750;9.314;2023-07-08T07:43:21;23.00;92.40
40676;DHT22;26359;48.750;9.314;2023-07-08T07:45:52;23.10;92.20
40676;DHT22;26359;48.750;9.314;2023-07-08T07:48:19;23.10;92.60
40676;DHT22;26359;48.750;9.314;2023-07-08T07:50:47;23.10;92.50
40676;DHT22;26359;48.750;9.314;2023-07-08T07:53:12;23.20;92.40
40676;DHT22;26359;48.750;9.314;2023-07-08T07:55:38;23.30;92.60
40676;DHT22;26359;48.750;9.314;2023-07-08T07:58:03;23.30;92.60
40676;DHT22;26359;48.750;9.314;2023-07-08T08:00:30;23.30;92.70
40676;DHT22;26359;48.750;9.314;2023-07-08T08:02:56;23.30;92.80
40676;DHT22;26359;48.750;9.314;2023-07-08T08:05:21;23.30;93.10
40676;DHT22;26359;48.750;9.314;2023-07-08T08:07:47;23.30;93.20
40676;DHT22;26359;48.750;9.314;2023-07-08T08:10:13;23.30;93.20
40676;DHT22;26359;48.750;9.314;2023-07-08T08:12:39;23.40;92.90
40676;DHT22;26359;48.750;9.314;2023-07-08T08:15:05;23.50;93.00
40676;DHT22;26359;48.750;9.314;2023-07-08T08:17:31;23.50;92.60
40676;DHT22;26359;48.750;9.314;2023-07-08T08:19:56;23.50;93.20
40676;DHT22;26359;48.750;9.314;2023-07-08T08:22:22;23.50;92.80
40676;DHT22;26359;48.750;9.314;2023-07-08T08:24:47;23.60;93.00
40676;DHT22;26359;48.750;9.314;2023-07-08T08:27:13;23.80;93.10
40676;DHT22;26359;48.750;9.314;2023-07-08T08:29:38;23.80;93.00
40676;DHT22;26359;48.750;9.314;2023-07-08T08:32:04;23.80;93.10
40676;DHT22;26359;48.750;9.314;2023-07-08T08:34:29;23.90;92.70
40676;DHT22;26359;48.750;9.314;2023-07-08T08:36:57;24.00;92.70
40676;DHT22;26359;48.750;9.314;2023-07-08T08:39:23;24.10;93.10
40676;DHT22;26359;48.750;9.314;2023-07-08T08:41:50;24.10;93.00
40676;DHT22;26359;48.750;9.314;2023-07-08T08:44:25;24.20;93.10
40676;DHT22;26359;48.750;9.314;2023-07-08T08:47:01;24.40;93.10
40676;DHT22;26359;48.750;9.314;2023-07-08T08:49:35;24.50;92.70
40676;DHT22;26359;48.750;9.314;2023-07-08T08:52:03;24.50;92.40
40676;DHT22;26359;48.750;9.314;2023-07-08T08:54:30;24.70;92.40
40676;DHT22;26359;48.750;9.314;2023-07-08T08:57:13;24.80;92.40
40676;DHT22;26359;48.750;9.314;2023-07-08T08:59:44;24.90;92.60
40676;DHT22;26359;48.750;9.314;2023-07-08T09:04:44;25.30;92.20
40676;DHT22;26359;48.750;9.314;2023-07-08T09:07:17;25.40;91.40
40676;DHT22;26359;48.750;9.314;2023-07-08T09:10:00;25.50;91.10
40676;DHT22;26359;48.750;9.314;2023-07-08T09:12:27;25.60;91.60
40676;DHT22;26359;48.750;9.314;2023-07-08T09:14:55;25.70;91.60
40676;DHT22;26359;48.750;9.314;2023-07-08T09:17:30;26.00;90.20
40676;DHT22;26359;48.750;9.314;2023-07-08T09:20:28;25.90;90.20
40676;DHT22;26359;48.750;9.314;2023-07-08T09:23:27;26.00;90.50
40676;DHT22;26359;48.750;9.314;2023-07-08T09:26:01;26.20;90.00
40676;DHT22;26359;48.750;9.314;2023-07-08T09:28:57;26.20;90.20
40676;DHT22;26359;48.750;9.314;2023-07-08T09:31:27;26.30;90.00
40676;DHT22;26359;48.750;9.314;2023-07-08T09:34:04;26.40;90.30
40676;DHT22;26359;48.750;9.314;2023-07-08T09:36:30;26.50;89.90
40676;DHT22;26359;48.750;9.314;2023-07-08T09:38:56;26.50;90.40
40676;DHT22;26359;48.750;9.314;2023-07-08T09:41:34;26.50;90.30
40676;DHT22;26359;48.750;9.314;2023-07-08T09:44:11;26.50;90.50
40676;DHT22;26359;48.750;9.314;2023-07-08T09:46:38;26.60;90.10
40676;DHT22;26359;48.750;9.314;2023-07-08T09:49:21;26.60;90.50
40676;DHT22;26359;48.750;9.314;2023-07-08T09:51:48;26.60;90.10
40676;DHT22;26359;48.750;9.314;2023-07-08T09:54:16;26.60;90.40
40676;DHT22;26359;48.750;9.314;2023-07-08T09:56:54;26.80;90.30
40676;DHT22;26359;48.750;9.314;2023-07-08T09:59:29;26.90;89.70
40676;DHT22;26359;48.750;9.314;2023-07-08T10:01:59;27.10;88.40
40676;DHT22;26359;48.750;9.314;2023-07-08T10:04:25;27.10;88.80
40676;DHT22;26359;48.750;9.314;2023-07-08T10:06:50;27.00;88.70
40676;DHT22;26359;48.750;9.314;2023-07-08T10:09:20;27.00;88.50
40676;DHT22;26359;48.750;9.314;2023-07-08T10:11:50;27.10;88.10
40676;DHT22;26359;48.750;9.314;2023-07-08T10:17:15;27.10;90.00
40676;DHT22;26359;48.750;9.314;2023-07-08T10:19:42;27.20;88.60
40676;DHT22;26359;48.750;9.314;2023-07-08T10:27:36;27.20;87.60
40676;DHT22;26359;48.750;9.314;2023-07-08T10:30:26;27.20;89.30
40676;DHT22;26359;48.750;9.314;2023-07-08T10:33:13;27.20;87.90
40676;DHT22;26359;48.750;9.314;2023-07-08T10:38:37;27.50;84.30
40676;DHT22;26359;48.750;9.314;2023-07-08T10:41:15;27.50;84.90
40676;DHT22;26359;48.750;9.314;2023-07-08T10:46:36;27.50;85.10
40676;DHT22;26359;48.750;9.314;2023-07-08T10:49:31;27.70;87.30
40676;DHT22;26359;48.750;9.314;2023-07-08T10:54:46;28.30;80.70
40676;DHT22;26359;48.750;9.314;2023-07-08T11:00:24;28.50;81.80
40676;DHT22;26359;48.750;9.314;2023-07-08T11:05:29;29.10;80.70
40676;DHT22;26359;48.750;9.314;2023-07-08T11:11:41;29.50;80.40
40676;DHT22;26359;48.750;9.314;2023-07-08T11:14:03;29.50;80.70
40676;DHT22;26359;48.750;9.314;2023-07-08T11:16:56;29.70;82.50
40676;DHT22;26359;48.750;9.314;2023-07-08T11:19:37;30.10;80.40
40676;DHT22;26359;48.750;9.314;2023-07-08T11:22:09;30.30;78.20
40676;DHT22;26359;48.750;9.314;2023-07-08T11:24:43;30.40;80.20
40676;DHT22;26359;48.750;9.314;2023-07-08T11:27:21;30.30;78.00
40676;DHT22;26359;48.750;9.314;2023-07-08T11:29:50;30.70;77.80
40676;DHT22;26359;48.750;9.314;2023-07-08T11:32:20;30.90;77.30
40676;DHT22;26359;48.750;9.314;2023-07-08T11:34:50;31.10;77.70
40676;DHT22;26359;48.750;9.314;2023-07-08T11:37:17;31.20;77.30
40676;DHT22;26359;48.750;9.314;2023-07-08T11:39:45;31.20;75.70
40676;DHT22;26359;48.750;9.314;2023-07-08T11:45:07;31.40;75.20
40676;DHT22;26359;48.750;9.314;2023-07-08T11:47:41;31.50;75.40
40676;DHT22;26359;48.750;9.314;2023-07-08T11:50:40;31.50;76.00
40676;DHT22;26359;48.750;9.314;2023-07-08T11:53:08;31.80;75.10
40676;DHT22;26359;48.750;9.314;2023-07-08T11:55:44;31.90;73.50
40676;DHT22;26359;48.750;9.314;2023-07-08T12:01:05;32.10;72.40
40676;DHT22;26359;48.750;9.314;2023-07-08T12:03:41;32.20;74.10
40676;DHT22;26359;48.750;9.314;2023-07-08T12:09:13;32.60;71.90
40676;DHT22;26359;48.750;9.314;2023-07-08T12:11:43;32.30;70.60
40676;DHT22;26359;48.750;9.314;2023-07-08T12:14:09;32.20;74.40
40676;DHT22;26359;48.750;9.314;2023-07-08T12:16:35;32.40;72.90
40676;DHT22;26359;48.750;9.314;2023-07-08T12:19:02;32.80;73.60
40676;DHT22;26359;48.750;9.314;2023-07-08T12:21:30;33.00;72.20
40676;DHT22;26359;48.750;9.314;2023-07-08T12:24:04;33.00;70.50
40676;DHT22;26359;48.750;9.314;2023-07-08T12:26:29;32.90;72.50
40676;DHT22;26359;48.750;9.314;2023-07-08T12:28:56;32.90;70.20
40676;DHT22;26359;48.750;9.314;2023-07-08T12:31:23;33.10;74.50
40676;DHT22;26359;48.750;9.314;2023-07-08T12:33:49;33.10;70.00
40676;DHT22;26359;48.750;9.314;2023-07-08T12:36:21;33.40;69.30
40676;DHT22;26359;48.750;9.314;2023-07-08T12:38:49;33.20;68.30
40676;DHT22;26359;48.750;9.314;2023-07-08T12:41:22;32.70;68.70
40676;DHT22;26359;48.750;9.314;2023-07-08T12:43:50;32.60;72.40
40676;DHT22;26359;48.750;9.314;2023-07-08T12:46:19;33.00;72.60
40676;DHT22;26359;48.750;9.314;2023-07-08T12:48:46;33.30;70.70
40676;DHT22;26359;48.750;9.314;2023-07-08T12:51:17;33.60;68.80
40676;DHT22;26359;48.750;9.314;2023-07-08T12:53:43;33.80;71.40
40676;DHT22;26359;48.750;9.314;2023-07-08T12:56:10;33.90;71.30
40676;DHT22;26359;48.750;9.314;2023-07-08T12:58:45;34.30;68.80
40676;DHT22;26359;48.750;9.314;2023-07-08T13:01:24;34.60;68.70
40676;DHT22;26359;48.750;9.314;2023-07-08T13:03:52;34.60;66.10
40676;DHT22;26359;48.750;9.314;2023-07-08T13:06:21;34.60;65.50
40676;DHT22;26359;48.750;9.314;2023-07-08T13:08:48;34.50;65.90
40676;DHT22;26359;48.750;9.314;2023-07-08T13:11:16;34.50;65.90
40676;DHT22;26359;48.750;9.314;2023-07-08T13:13:56;34.60;67.50
40676;DHT22;26359;48.750;9.314;2023-07-08T13:16:29;34.60;67.30
40676;DHT22;26359;48.750;9.314;2023-07-08T13:18:56;34.70;66.50
40676;DHT22;26359;48.750;9.314;2023-07-08T13:21:22;34.70;66.10
40676;DHT22;26359;48.750;9.314;2023-07-08T13:23:50;34.80;66.50
40676;DHT22;26359;48.750;9.314;2023-07-08T13:26:18;35.10;66.90
40676;DHT22;26359;48.750;9.314;2023-07-08T13:28:45;35.10;65.40
40676;DHT22;26359;48.750;9.314;2023-07-08T13:31:23;35.00;65.30
40676;DHT22;26359;48.750;9.314;2023-07-08T13:33:53;35.10;66.90
40676;DHT22;26359;48.750;9.314;2023-07-08T13:36:33;35.20;65.80
40676;DHT22;26359;48.750;9.314;2023-07-08T13:39:02;35.40;65.90
40676;DHT22;26359;48.750;9.314;2023-07-08T13:41:29;35.30;65.30
40676;DHT22;26359;48.750;9.314;2023-07-08T13:43:55;35.10;65.20
40676;DHT22;26359;48.750;9.314;2023-07-08T13:46:30;35.30;65.70
40676;DHT22;26359;48.750;9.314;2023-07-08T13:49:01;35.50;63.70
40676;DHT22;26359;48.750;9.314;2023-07-08T13:51:31;35.50;64.10
40676;DHT22;26359;48.750;9.314;2023-07-08T13:54:00;35.60;62.80
40676;DHT22;26359;48.750;9.314;2023-07-08T13:56:31;35.40;63.50
40676;DHT22;26359;48.750;9.314;2023-07-08T13:59:05;35.40;64.50
40676;DHT22;26359;48.750;9.314;2023-07-08T14:01:33;35.40;63.50
40676;DHT22;26359;48.750;9.314;2023-07-08T14:03:59;35.60;63.10
40676;DHT22;26359;48.750;9.314;2023-07-08T14:06:34;35.30;63.50
40676;DHT22;26359;48.750;9.314;2023-07-08T14:11:39;35.00;63.20
40676;DHT22;26359;48.750;9.314;2023-07-08T14:14:05;35.00;66.70
40676;DHT22;26359;48.750;9.314;2023-07-08T14:16:34;35.20;65.40
40676;DHT22;26359;48.750;9.314;2023-07-08T14:19:02;35.50;63.50
40676;DHT22;26359;48.750;9.314;2023-07-08T14:21:32;35.90;62.80
40676;DHT22;26359;48.750;9.314;2023-07-08T14:23:58;36.00;64.50
40676;DHT22;26359;48.750;9.314;2023-07-08T14:26:24;36.10;64.60
40676;DHT22;26359;48.750;9.314;2023-07-08T14:28:53;36.20;63.00
40676;DHT22;26359;48.750;9.314;2023-07-08T14:31:21;36.50;61.40
40676;DHT22;26359;48.750;9.314;2023-07-08T14:33:50;36.80;62.70
40676;DHT22;26359;48.750;9.314;2023-07-08T14:36:17;37.00;60.60
40676;DHT22;26359;48.750;9.314;2023-07-08T14:38:42;36.80;60.10
40676;DHT22;26359;48.750;9.314;2023-07-08T14:41:08;36.60;60.80
40676;DHT22;26359;48.750;9.314;2023-07-08T14:43:34;36.70;61.70
40676;DHT22;26359;48.750;9.314;2023-07-08T14:46:02;37.00;60.50
40676;DHT22;26359;48.750;9.314;2023-07-08T14:48:29;36.70;62.50
40676;DHT22;26359;48.750;9.314;2023-07-08T14:50:55;36.70;60.60
40676;DHT22;26359;48.750;9.314;2023-07-08T14:53:20;36.80;60.80
40676;DHT22;26359;48.750;9.314;2023-07-08T14:55:48;36.60;61.80
40676;DHT22;26359;48.750;9.314;2023-07-08T14:58:25;36.70;60.00
40676;DHT22;26359;48.750;9.314;2023-07-08T15:00:55;36.80;61.50
40676;DHT22;26359;48.750;9.314;2023-07-08T15:03:22;36.50;61.10
40676;DHT22;26359;48.750;9.314;2023-07-08T15:05:48;36.40;61.30
40676;DHT22;26359;48.750;9.314;2023-07-08T15:08:14;36.60;60.20
40676;DHT22;26359;48.750;9.314;2023-07-08T15:10:46;36.60;60.30
40676;DHT22;26359;48.750;9.314;2023-07-08T15:13:13;36.10;61.30
40676;DHT22;26359;48.750;9.314;2023-07-08T15:15:39;35.30;63.60
40676;DHT22;26359;48.750;9.314;2023-07-08T15:18:18;34.80;63.20
40676;DHT22;26359;48.750;9.314;2023-07-08T15:20:45;34.40;65.10
40676;DHT22;26359;48.750;9.314;2023-07-08T15:23:12;34.60;64.40
40676;DHT22;26359;48.750;9.314;2023-07-08T15:25:41;35.20;63.50
40676;DHT22;26359;48.750;9.314;2023-07-08T15:28:14;35.40;62.50
40676;DHT22;26359;48.750;9.314;2023-07-08T15:30:40;35.50;63.30
40676;DHT22;26359;48.750;9.314;2023-07-08T15:33:08;35.60;65.20
40676;DHT22;26359;48.750;9.314;2023-07-08T15:35:34;35.70;62.10
40676;DHT22;26359;48.750;9.314;2023-07-08T15:38:00;35.60;62.60
40676;DHT22;26359;48.750;9.314;2023-07-08T15:40:32;35.30;63.20
40676;DHT22;26359;48.750;9.314;2023-07-08T15:43:00;35.30;62.80
40676;DHT22;26359;48.750;9.314;2023-07-08T15:45:29;35.10;62.80
40676;DHT22;26359;48.750;9.314;2023-07-08T15:47:56;34.60;63.40
40676;DHT22;26359;48.750;9.314;2023-07-08T15:50:24;34.20;65.10
40676;DHT22;26359;48.750;9.314;2023-07-08T15:52:51;33.80;64.80
40676;DHT22;26359;48.750;9.314;2023-07-08T15:55:28;33.50;66.80
40676;DHT22;26359;48.750;9.314;2023-07-08T15:58:06;33.40;65.20
40676;DHT22;26359;48.750;9.314;2023-07-08T16:00:37;33.50;65.70
40676;DHT22;26359;48.750;9.314;2023-07-08T16:03:22;33.50;65.00
40676;DHT22;26359;48.750;9.314;2023-07-08T16:05:49;33.60;65.60
40676;DHT22;26359;48.750;9.314;2023-07-08T16:08:14;33.70;67.30
40676;DHT22;26359;48.750;9.314;2023-07-08T16:10:40;33.70;64.80
40676;DHT22;26359;48.750;9.314;2023-07-08T16:13:09;33.70;64.70
40676;DHT22;26359;48.750;9.314;2023-07-08T16:15:37;33.80;65.10
40676;DHT22;26359;48.750;9.314;2023-07-08T16:18:04;33.60;65.20
40676;DHT22;26359;48.750;9.314;2023-07-08T16:20:33;33.50;68.20